sensor_id;sensor_type;location;lat;lon;timestamp;pressure;altitude;pressure_sealevel;temperature;humidity
45541;BME280;31265;49.680;8.608;2023-02-03T00:01:40;101783.03;;;6.78;100.00
45541;BME280;31265;49.680;8.608;2023-02-03T00:04:09;101783.28;;;6.86;100.00
45541;BME280;31265;49.680;8.608;2023-02-03T00:06:38;101779.78;;;6.85;100.00
45541;BME280;31265;49.680;8.608;2023-02-03T00:09:06;101769.00;;;6.87;100.00
45541;BME280;31265;49.680;8.608;2023-02-03T00:11:35;101769.72;;;6.82;100.00
45541;BME280;31265;49.680;8.608;2023-02-03T00:14:03;101768.47;;;6.78;100.00
45541;BME280;31265;49.680;8.608;2023-02-03T00:16:35;101777.50;;;6.84;100.00
45541;BME280;31265;49.680;8.608;2023-02-03T00:19:04;101774.00;;;6.89;100.00
45541;BME280;31265;49.680;8.608;2023-02-03T00:21:33;101783.50;;;6.77;100.00
45541;BME280;31265;49.680;8.608;2023-02-03T00:24:02;101782.28;;;6.78;100.00
45541;BME280;31265;49.680;8.608;2023-02-03T00:26:30;101788.78;;;6.69;100.00
45541;BME280;31265;49.680;8.608;2023-02-03T00:28:59;101773.22;;;6.72;100.00
45541;BME280;31265;49.680;8.608;2023-02-03T00:31:27;101761.69;;;6.73;100.00
45541;BME280;31265;49.680;8.608;2023-02-03T00:33:56;101738.38;;;6.74;100.00
45541;BME280;31265;49.680;8.608;2023-02-03T00:36:26;101748.91;;;6.70;100.00
45541;BME280;31265;49.680;8.608;2023-02-03T00:38:55;101746.66;;;6.68;100.00
45541;BME280;31265;49.680;8.608;2023-02-03T00:41:27;101735.34;;;6.72;100.00
45541;BME280;31265;49.680;8.608;2023-02-03T00:43:56;101735.13;;;6.76;100.00
45541;BME280;31265;49.680;8.608;2023-02-03T00:46:25;101742.38;;;6.84;100.00
45541;BME280;31265;49.680;8.608;2023-02-03T00:48:53;101736.09;;;6.89;100.00
45541;BME280;31265;49.680;8.608;2023-02-03T00:51:21;101756.69;;;7.00;100.00
45541;BME280;31265;49.680;8.608;2023-02-03T00:53:51;101760.44;;;7.08;100.00
45541;BME280;31265;49.680;8.608;2023-02-03T00:56:19;101757.44;;;6.95;100.00
45541;BME280;31265;49.680;8.608;2023-02-03T00:58:48;101779.75;;;6.97;100.00
45541;BME280;31265;49.680;8.608;2023-02-03T01:01:16;101774.00;;;7.06;100.00
45541;BME280;31265;49.680;8.608;2023-02-03T01:03:45;101776.25;;;7.07;100.00
45541;BME280;31265;49.680;8.608;2023-02-03T01:06:17;101765.19;;;7.24;100.00
45541;BME280;31265;49.680;8.608;2023-02-03T01:08:46;101772.75;;;7.18;100.00
45541;BME280;31265;49.680;8.608;2023-02-03T01:11:19;101764.97;;;7.22;100.00
45541;BME280;31265;49.680;8.608;2023-02-03T01:13:47;101761.94;;;7.09;100.00
45541;BME280;31265;49.680;8.608;2023-02-03T01:16:17;101739.88;;;7.09;100.00
45541;BME280;31265;49.680;8.608;2023-02-03T01:18:47;101728.06;;;7.14;100.00
45541;BME280;31265;49.680;8.608;2023-02-03T01:21:17;101724.56;;;7.14;100.00
45541;BME280;31265;49.680;8.608;2023-02-03T01:23:47;101722.34;;;6.95;100.00
45541;BME280;31265;49.680;8.608;2023-02-03T01:26:19;101702.50;;;6.91;100.00
45541;BME280;31265;49.680;8.608;2023-02-03T01:28:52;101676.94;;;6.79;100.00
45541;BME280;31265;49.680;8.608;2023-02-03T01:31:33;101676.94;;;6.74;100.00
45541;BME280;31265;49.680;8.608;2023-02-03T01:34:03;101688.22;;;6.81;100.00
45541;BME280;31265;49.680;8.608;2023-02-03T01:36:33;101697.75;;;6.80;100.00
45541;BME280;31265;49.680;8.608;2023-02-03T01:39:03;101699.00;;;6.91;100.00
45541;BME280;31265;49.680;8.608;2023-02-03T01:41:36;101697.25;;;6.93;100.00
45541;BME280;31265;49.680;8.608;2023-02-03T01:47:22;101698.25;;;6.84;100.00
45541;BME280;31265;49.680;8.608;2023-02-03T01:49:56;101699.50;;;6.83;100.00
45541;BME280;31265;49.680;8.608;2023-02-03T01:52:28;101687.19;;;6.84;100.00
45541;BME280;31265;49.680;8.608;2023-02-03T01:54:59;101689.22;;;6.84;100.00
45541;BME280;31265;49.680;8.608;2023-02-03T01:57:32;101678.41;;;6.92;100.00
45541;BME280;31265;49.680;8.608;2023-02-03T02:00:04;101681.69;;;6.96;100.00
45541;BME280;31265;49.680;8.608;2023-02-03T02:02:39;101681.41;;;6.99;100.00
45541;BME280;31265;49.680;8.608;2023-02-03T02:05:13;101680.91;;;7.01;100.00
45541;BME280;31265;49.680;8.608;2023-02-03T02:07:44;101679.91;;;7.15;100.00
45541;BME280;31265;49.680;8.608;2023-02-03T02:10:14;101684.13;;;7.27;100.00
45541;BME280;31265;49.680;8.608;2023-02-03T02:12:48;101672.56;;;7.29;100.00
45541;BME280;31265;49.680;8.608;2023-02-03T02:15:22;101681.38;;;7.27;100.00
45541;BME280;31265;49.680;8.608;2023-02-03T02:18:06;101670.81;;;7.31;100.00
45541;BME280;31265;49.680;8.608;2023-02-03T02:21:05;101669.31;;;7.30;100.00
45541;BME280;31265;49.680;8.608;2023-02-03T02:23:57;101659.75;;;7.31;100.00
45541;BME280;31265;49.680;8.608;2023-02-03T02:26:49;101675.06;;;7.27;100.00
45541;BME280;31265;49.680;8.608;2023-02-03T02:32:41;101668.84;;;7.21;100.00
45541;BME280;31265;49.680;8.608;2023-02-03T02:35:19;101668.34;;;7.22;100.00
45541;BME280;31265;49.680;8.608;2023-02-03T02:37:58;101661.53;;;7.23;100.00
45541;BME280;31265;49.680;8.608;2023-02-03T02:40:34;101656.06;;;7.18;100.00
45541;BME280;31265;49.680;8.608;2023-02-03T02:43:09;101674.38;;;7.15;100.00
45541;BME280;31265;49.680;8.608;2023-02-03T02:45:45;101679.38;;;7.22;100.00
45541;BME280;31265;49.680;8.608;2023-02-03T02:48:23;101691.63;;;7.27;100.00
45541;BME280;31265;49.680;8.608;2023-02-03T02:50:55;101685.91;;;7.25;100.00
45541;BME280;31265;49.680;8.608;2023-02-03T02:53:28;101691.91;;;7.23;100.00
45541;BME280;31265;49.680;8.608;2023-02-03T02:56:02;101679.63;;;7.19;100.00
45541;BME280;31265;49.680;8.608;2023-02-03T02:58:34;101683.88;;;7.25;100.00
45541;BME280;31265;49.680;8.608;2023-02-03T03:01:06;101688.91;;;7.21;100.00
45541;BME280;31265;49.680;8.608;2023-02-03T03:03:38;101686.38;;;7.23;100.00
45541;BME280;31265;49.680;8.608;2023-02-03T03:06:15;101695.94;;;7.22;100.00
45541;BME280;31265;49.680;8.608;2023-02-03T03:08:50;101706.72;;;7.20;100.00
45541;BME280;31265;49.680;8.608;2023-02-03T03:11:22;101710.50;;;7.11;100.00
45541;BME280;31265;49.680;8.608;2023-02-03T03:13:55;101721.25;;;7.26;100.00
45541;BME280;31265;49.680;8.608;2023-02-03T03:16:26;101732.56;;;7.23;100.00
45541;BME280;31265;49.680;8.608;2023-02-03T03:18:59;101743.38;;;7.21;100.00
45541;BME280;31265;49.680;8.608;2023-02-03T03:21:31;101743.09;;;7.24;100.00
45541;BME280;31265;49.680;8.608;2023-02-03T03:24:05;101742.59;;;7.31;100.00
45541;BME280;31265;49.680;8.608;2023-02-03T03:26:38;101737.84;;;7.21;100.00
45541;BME280;31265;49.680;8.608;2023-02-03T03:29:13;101730.34;;;7.10;100.00
45541;BME280;31265;49.680;8.608;2023-02-03T03:31:44;101723.56;;;7.11;100.00
45541;BME280;31265;49.680;8.608;2023-02-03T03:34:15;101719.31;;;6.93;100.00
45541;BME280;31265;49.680;8.608;2023-02-03T03:36:46;101714.28;;;6.92;100.00
45541;BME280;31265;49.680;8.608;2023-02-03T03:39:23;101720.06;;;6.82;100.00
45541;BME280;31265;49.680;8.608;2023-02-03T03:42:01;101720.31;;;6.79;100.00
45541;BME280;31265;49.680;8.608;2023-02-03T03:44:36;101716.81;;;6.78;100.00
45541;BME280;31265;49.680;8.608;2023-02-03T03:47:11;101701.50;;;6.83;100.00
45541;BME280;31265;49.680;8.608;2023-02-03T03:49:44;101712.28;;;6.81;100.00
45541;BME280;31265;49.680;8.608;2023-02-03T03:52:16;101710.53;;;6.83;100.00
45541;BME280;31265;49.680;8.608;2023-02-03T03:54:47;101702.50;;;6.74;100.00
45541;BME280;31265;49.680;8.608;2023-02-03T03:57:20;101706.78;;;6.75;100.00
45541;BME280;31265;49.680;8.608;2023-02-03T03:59:52;101696.00;;;6.83;100.00
45541;BME280;31265;49.680;8.608;2023-02-03T04:02:25;101683.47;;;6.76;100.00
45541;BME280;31265;49.680;8.608;2023-02-03T04:04:55;101673.91;;;6.77;100.00
45541;BME280;31265;49.680;8.608;2023-02-03T04:07:36;101677.66;;;6.80;100.00
45541;BME280;31265;49.680;8.608;2023-02-03T04:10:17;101690.72;;;6.79;100.00
45541;BME280;31265;49.680;8.608;2023-02-03T04:12:49;101682.94;;;6.72;100.00
45541;BME280;31265;49.680;8.608;2023-02-03T04:15:20;101682.72;;;6.76;100.00
45541;BME280;31265;49.680;8.608;2023-02-03T04:17:50;101682.19;;;6.77;100.00
45541;BME280;31265;49.680;8.608;2023-02-03T04:20:20;101679.19;;;6.86;100.00
45541;BME280;31265;49.680;8.608;2023-02-03T04:22:48;101679.44;;;6.88;100.00
45541;BME280;31265;49.680;8.608;2023-02-03T04:25:17;101686.47;;;6.84;100.00
45541;BME280;31265;49.680;8.608;2023-02-03T04:27:45;101690.22;;;6.86;100.00
45541;BME280;31265;49.680;8.608;2023-02-03T04:30:14;101688.19;;;6.87;100.00
45541;BME280;31265;49.680;8.608;2023-02-03T04:32:44;101685.44;;;6.87;100.00
45541;BME280;31265;49.680;8.608;2023-02-03T04:35:14;101692.47;;;6.94;100.00
45541;BME280;31265;49.680;8.608;2023-02-03T04:37:44;101701.75;;;6.96;100.00
45541;BME280;31265;49.680;8.608;2023-02-03T04:40:12;101688.22;;;6.93;100.00
45541;BME280;31265;49.680;8.608;2023-02-03T04:42:41;101686.69;;;7.08;100.00
45541;BME280;31265;49.680;8.608;2023-02-03T04:45:10;101688.69;;;7.08;100.00
45541;BME280;31265;49.680;8.608;2023-02-03T04:47:38;101686.19;;;6.99;100.00
45541;BME280;31265;49.680;8.608;2023-02-03T04:50:07;101693.22;;;7.05;100.00
45541;BME280;31265;49.680;8.608;2023-02-03T04:52:36;101690.69;;;7.02;100.00
45541;BME280;31265;49.680;8.608;2023-02-03T04:55:07;101685.19;;;6.91;100.00
45541;BME280;31265;49.680;8.608;2023-02-03T04:57:35;101666.38;;;6.95;100.00
45541;BME280;31265;49.680;8.608;2023-02-03T05:00:04;101672.91;;;7.03;100.00
45541;BME280;31265;49.680;8.608;2023-02-03T05:02:33;101680.16;;;7.06;100.00
45541;BME280;31265;49.680;8.608;2023-02-03T05:05:01;101681.44;;;6.94;100.00
45541;BME280;31265;49.680;8.608;2023-02-03T05:07:29;101699.75;;;7.02;100.00
45541;BME280;31265;49.680;8.608;2023-02-03T05:09:58;101703.25;;;7.03;100.00
45541;BME280;31265;49.680;8.608;2023-02-03T05:12:27;101722.06;;;6.99;100.00
45541;BME280;31265;49.680;8.608;2023-02-03T05:14:56;101723.59;;;7.00;100.00
45541;BME280;31265;49.680;8.608;2023-02-03T05:17:24;101701.75;;;6.96;100.00
45541;BME280;31265;49.680;8.608;2023-02-03T05:19:56;101698.47;;;7.03;100.00
45541;BME280;31265;49.680;8.608;2023-02-03T05:22:24;101695.72;;;6.98;100.00
45541;BME280;31265;49.680;8.608;2023-02-03T05:24:53;101701.75;;;6.96;100.00
45541;BME280;31265;49.680;8.608;2023-02-03T05:27:23;101707.03;;;7.00;100.00
45541;BME280;31265;49.680;8.608;2023-02-03T05:29:52;101700.97;;;7.07;100.00
45541;BME280;31265;49.680;8.608;2023-02-03T05:32:21;101691.19;;;7.11;100.00
45541;BME280;31265;49.680;8.608;2023-02-03T05:34:50;101691.69;;;7.16;100.00
45541;BME280;31265;49.680;8.608;2023-02-03T05:37:19;101688.94;;;7.04;100.00
45541;BME280;31265;49.680;8.608;2023-02-03T05:39:47;101678.13;;;7.06;100.00
45541;BME280;31265;49.680;8.608;2023-02-03T05:42:16;101670.38;;;7.05;100.00
45541;BME280;31265;49.680;8.608;2023-02-03T05:44:43;101679.66;;;6.96;100.00
45541;BME280;31265;49.680;8.608;2023-02-03T05:47:13;101670.13;;;6.97;100.00
45541;BME280;31265;49.680;8.608;2023-02-03T05:49:41;101676.16;;;7.01;100.00
45541;BME280;31265;49.680;8.608;2023-02-03T05:52:10;101674.63;;;7.06;100.00
45541;BME280;31265;49.680;8.608;2023-02-03T05:54:38;101674.91;;;7.02;100.00
45541;BME280;31265;49.680;8.608;2023-02-03T05:57:06;101679.91;;;7.04;100.00
45541;BME280;31265;49.680;8.608;2023-02-03T05:59:34;101671.16;;;7.00;100.00
45541;BME280;31265;49.680;8.608;2023-02-03T06:02:03;101656.31;;;7.08;100.00
45541;BME280;31265;49.680;8.608;2023-02-03T06:04:32;101635.00;;;6.92;100.00
45541;BME280;31265;49.680;8.608;2023-02-03T06:07:01;101636.78;;;6.95;100.00
45541;BME280;31265;49.680;8.608;2023-02-03T06:09:29;101644.84;;;6.87;100.00
45541;BME280;31265;49.680;8.608;2023-02-03T06:11:58;101634.78;;;6.96;100.00
45541;BME280;31265;49.680;8.608;2023-02-03T06:14:26;101640.28;;;7.01;100.00
45541;BME280;31265;49.680;8.608;2023-02-03T06:16:54;101648.81;;;6.98;100.00
45541;BME280;31265;49.680;8.608;2023-02-03T06:19:23;101643.28;;;6.92;100.00
45541;BME280;31265;49.680;8.608;2023-02-03T06:21:53;101644.06;;;6.93;100.00
45541;BME280;31265;49.680;8.608;2023-02-03T06:24:23;101642.53;;;7.03;100.00
45541;BME280;31265;49.680;8.608;2023-02-03T06:26:54;101645.78;;;7.01;100.00
45541;BME280;31265;49.680;8.608;2023-02-03T06:29:23;101635.25;;;7.05;100.00
45541;BME280;31265;49.680;8.608;2023-02-03T06:31:51;101627.22;;;7.02;100.00
45541;BME280;31265;49.680;8.608;2023-02-03T06:34:20;101632.19;;;7.20;100.00
45541;BME280;31265;49.680;8.608;2023-02-03T06:36:48;101621.69;;;7.13;100.00
45541;BME280;31265;49.680;8.608;2023-02-03T06:39:19;101634.22;;;7.14;100.00
45541;BME280;31265;49.680;8.608;2023-02-03T06:41:47;101649.78;;;7.11;100.00
45541;BME280;31265;49.680;8.608;2023-02-03T06:44:17;101642.75;;;7.10;100.00
45541;BME280;31265;49.680;8.608;2023-02-03T06:46:46;101638.47;;;7.09;100.00
45541;BME280;31265;49.680;8.608;2023-02-03T06:49:14;101645.00;;;7.18;100.00
45541;BME280;31265;49.680;8.608;2023-02-03T06:51:43;101642.75;;;7.16;100.00
45541;BME280;31265;49.680;8.608;2023-02-03T06:54:12;101661.56;;;7.18;100.00
45541;BME280;31265;49.680;8.608;2023-02-03T06:56:43;101677.84;;;7.21;100.00
45541;BME280;31265;49.680;8.608;2023-02-03T06:59:11;101676.09;;;7.24;100.00
45541;BME280;31265;49.680;8.608;2023-02-03T07:01:40;101670.81;;;7.31;100.00
45541;BME280;31265;49.680;8.608;2023-02-03T07:04:09;101668.53;;;7.36;100.00
45541;BME280;31265;49.680;8.608;2023-02-03T07:06:37;101680.63;;;7.21;100.00
45541;BME280;31265;49.680;8.608;2023-02-03T07:09:05;101690.91;;;7.32;100.00
45541;BME280;31265;49.680;8.608;2023-02-03T07:11:34;101685.38;;;7.26;100.00
45541;BME280;31265;49.680;8.608;2023-02-03T07:14:03;101697.69;;;7.25;100.00
45541;BME280;31265;49.680;8.608;2023-02-03T07:16:32;101690.41;;;7.22;100.00
45541;BME280;31265;49.680;8.608;2023-02-03T07:19:02;101697.16;;;7.27;100.00
45541;BME280;31265;49.680;8.608;2023-02-03T07:21:31;101701.16;;;7.31;100.00
45541;BME280;31265;49.680;8.608;2023-02-03T07:24:00;101696.16;;;7.30;100.00
45541;BME280;31265;49.680;8.608;2023-02-03T07:26:29;101705.97;;;7.25;100.00
45541;BME280;31265;49.680;8.608;2023-02-03T07:28:57;101697.41;;;7.35;100.00
45541;BME280;31265;49.680;8.608;2023-02-03T07:31:28;101701.41;;;7.33;100.00
45541;BME280;31265;49.680;8.608;2023-02-03T07:33:56;101718.50;;;7.32;100.00
45541;BME280;31265;49.680;8.608;2023-02-03T07:36:24;101713.22;;;7.28;100.00
45541;BME280;31265;49.680;8.608;2023-02-03T07:38:54;101709.22;;;7.29;100.00
45541;BME280;31265;49.680;8.608;2023-02-03T07:41:22;101720.50;;;7.37;100.00
45541;BME280;31265;49.680;8.608;2023-02-03T07:43:50;101710.19;;;7.43;100.00
45541;BME280;31265;49.680;8.608;2023-02-03T07:46:18;101708.94;;;7.39;100.00
45541;BME280;31265;49.680;8.608;2023-02-03T07:48:49;101698.16;;;7.41;100.00
45541;BME280;31265;49.680;8.608;2023-02-03T07:51:17;101699.13;;;7.43;100.00
45541;BME280;31265;49.680;8.608;2023-02-03T07:53:45;101690.59;;;7.41;100.00
45541;BME280;31265;49.680;8.608;2023-02-03T07:56:14;101700.13;;;7.46;100.00
45541;BME280;31265;49.680;8.608;2023-02-03T07:58:42;101707.16;;;7.41;100.00
45541;BME280;31265;49.680;8.608;2023-02-03T08:01:11;101702.94;;;7.35;100.00
45541;BME280;31265;49.680;8.608;2023-02-03T08:03:40;101712.97;;;7.38;100.00
45541;BME280;31265;49.680;8.608;2023-02-03T08:06:10;101711.94;;;7.41;100.00
45541;BME280;31265;49.680;8.608;2023-02-03T08:08:39;101704.91;;;7.45;100.00
45541;BME280;31265;49.680;8.608;2023-02-03T08:11:07;101706.66;;;7.48;100.00
45541;BME280;31265;49.680;8.608;2023-02-03T08:13:36;101713.16;;;7.51;100.00
45541;BME280;31265;49.680;8.608;2023-02-03T08:16:05;101723.22;;;7.48;100.00
45541;BME280;31265;49.680;8.608;2023-02-03T08:18:34;101721.97;;;7.55;100.00
45541;BME280;31265;49.680;8.608;2023-02-03T08:21:03;101723.44;;;7.56;100.00
45541;BME280;31265;49.680;8.608;2023-02-03T08:23:33;101728.00;;;7.48;100.00
45541;BME280;31265;49.680;8.608;2023-02-03T08:26:03;101714.38;;;7.61;100.00
45541;BME280;31265;49.680;8.608;2023-02-03T08:28:32;101726.97;;;7.51;100.00
45541;BME280;31265;49.680;8.608;2023-02-03T08:31:00;101716.94;;;7.48;100.00
45541;BME280;31265;49.680;8.608;2023-02-03T08:33:29;101723.72;;;7.52;100.00
45541;BME280;31265;49.680;8.608;2023-02-03T08:35:58;101718.41;;;7.60;100.00
45541;BME280;31265;49.680;8.608;2023-02-03T08:38:27;101715.41;;;7.58;100.00
45541;BME280;31265;49.680;8.608;2023-02-03T08:40:57;101713.16;;;7.57;100.00
45541;BME280;31265;49.680;8.608;2023-02-03T08:43:26;101721.41;;;7.68;100.00
45541;BME280;31265;49.680;8.608;2023-02-03T08:45:54;101716.38;;;7.66;100.00
45541;BME280;31265;49.680;8.608;2023-02-03T08:48:22;101703.09;;;7.65;100.00
45541;BME280;31265;49.680;8.608;2023-02-03T08:50:51;101699.56;;;7.70;100.00
45541;BME280;31265;49.680;8.608;2023-02-03T08:53:19;101705.56;;;7.74;100.00
45541;BME280;31265;49.680;8.608;2023-02-03T08:55:47;101711.53;;;7.84;100.00
45541;BME280;31265;49.680;8.608;2023-02-03T08:58:18;101710.28;;;7.85;100.00
45541;BME280;31265;49.680;8.608;2023-02-03T09:00:46;101695.97;;;7.86;100.00
45541;BME280;31265;49.680;8.608;2023-02-03T09:03:15;101692.69;;;7.88;100.00
45541;BME280;31265;49.680;8.608;2023-02-03T09:05:44;101691.41;;;7.94;100.00
45541;BME280;31265;49.680;8.608;2023-02-03T09:08:13;101691.94;;;7.87;100.00
45541;BME280;31265;49.680;8.608;2023-02-03T09:10:41;101684.38;;;7.88;100.00
45541;BME280;31265;49.680;8.608;2023-02-03T09:13:09;101690.44;;;7.81;100.00
45541;BME280;31265;49.680;8.608;2023-02-03T09:15:39;101685.91;;;7.83;100.00
45541;BME280;31265;49.680;8.608;2023-02-03T09:18:07;101701.72;;;7.94;100.00
45541;BME280;31265;49.680;8.608;2023-02-03T09:20:36;101704.69;;;7.96;100.00
45541;BME280;31265;49.680;8.608;2023-02-03T09:23:04;101705.66;;;8.04;100.00
45541;BME280;31265;49.680;8.608;2023-02-03T09:25:33;101702.13;;;8.09;100.00
45541;BME280;31265;49.680;8.608;2023-02-03T09:28:01;101695.56;;;8.12;100.00
45541;BME280;31265;49.680;8.608;2023-02-03T09:30:30;101703.38;;;8.08;100.00
45541;BME280;31265;49.680;8.608;2023-02-03T09:33:00;101703.41;;;8.03;100.00
45541;BME280;31265;49.680;8.608;2023-02-03T09:35:29;101695.31;;;8.16;100.00
45541;BME280;31265;49.680;8.608;2023-02-03T09:37:58;101701.56;;;8.16;100.00
45541;BME280;31265;49.680;8.608;2023-02-03T09:40:30;101694.06;;;8.11;100.00
45541;BME280;31265;49.680;8.608;2023-02-03T09:43:11;101698.63;;;8.03;100.00
45541;BME280;31265;49.680;8.608;2023-02-03T09:45:42;101694.41;;;7.96;100.00
45541;BME280;31265;49.680;8.608;2023-02-03T09:48:17;101690.13;;;8.01;100.00
45541;BME280;31265;49.680;8.608;2023-02-03T09:50:49;101691.06;;;8.09;100.00
45541;BME280;31265;49.680;8.608;2023-02-03T09:53:26;101703.84;;;8.12;100.00
45541;BME280;31265;49.680;8.608;2023-02-03T09:55:56;101699.13;;;8.07;100.00
45541;BME280;31265;49.680;8.608;2023-02-03T09:58:27;101701.09;;;8.12;100.00
45541;BME280;31265;49.680;8.608;2023-02-03T10:00:58;101714.16;;;8.12;100.00
45541;BME280;31265;49.680;8.608;2023-02-03T10:03:32;101712.09;;;8.18;100.00
45541;BME280;31265;49.680;8.608;2023-02-03T10:06:11;101715.66;;;8.18;100.00
45541;BME280;31265;49.680;8.608;2023-02-03T10:08:51;101711.09;;;8.21;100.00
45541;BME280;31265;49.680;8.608;2023-02-03T10:11:35;101702.22;;;8.34;100.00
45541;BME280;31265;49.680;8.608;2023-02-03T10:14:16;101711.25;;;8.34;100.00
45541;BME280;31265;49.680;8.608;2023-02-03T10:17:03;101708.78;;;8.31;100.00
45541;BME280;31265;49.680;8.608;2023-02-03T10:19:42;101697.94;;;8.33;100.00
45541;BME280;31265;49.680;8.608;2023-02-03T10:22:15;101701.44;;;8.39;100.00
45541;BME280;31265;49.680;8.608;2023-02-03T10:24:50;101707.72;;;8.39;100.00
45541;BME280;31265;49.680;8.608;2023-02-03T10:27:22;101704.97;;;8.39;100.00
45541;BME280;31265;49.680;8.608;2023-02-03T10:29:56;101710.19;;;8.49;100.00
45541;BME280;31265;49.680;8.608;2023-02-03T10:32:26;101688.09;;;8.43;100.00
45541;BME280;31265;49.680;8.608;2023-02-03T10:34:59;101684.50;;;8.54;100.00
45541;BME280;31265;49.680;8.608;2023-02-03T10:37:29;101687.59;;;8.45;100.00
45541;BME280;31265;49.680;8.608;2023-02-03T10:40:00;101684.81;;;8.45;100.00
45541;BME280;31265;49.680;8.608;2023-02-03T10:42:30;101675.03;;;8.44;100.00
45541;BME280;31265;49.680;8.608;2023-02-03T10:45:15;101655.22;;;8.34;100.00
45541;BME280;31265;49.680;8.608;2023-02-03T10:47:46;101652.69;;;8.36;100.00
45541;BME280;31265;49.680;8.608;2023-02-03T10:50:20;101664.97;;;8.40;100.00
45541;BME280;31265;49.680;8.608;2023-02-03T10:52:49;101658.88;;;8.48;100.00
45541;BME280;31265;49.680;8.608;2023-02-03T10:55:29;101660.75;;;8.28;100.00
45541;BME280;31265;49.680;8.608;2023-02-03T10:58:05;101667.75;;;8.35;100.00
45541;BME280;31265;49.680;8.608;2023-02-03T11:00:38;101664.72;;;8.44;100.00
45541;BME280;31265;49.680;8.608;2023-02-03T11:03:21;101673.03;;;8.38;100.00
45541;BME280;31265;49.680;8.608;2023-02-03T11:06:08;101666.72;;;8.38;100.00
45541;BME280;31265;49.680;8.608;2023-02-03T11:08:39;101661.19;;;8.44;100.00
45541;BME280;31265;49.680;8.608;2023-02-03T11:11:12;101654.88;;;8.49;100.00
45541;BME280;31265;49.680;8.608;2023-02-03T11:13:41;101647.56;;;8.51;100.00
45541;BME280;31265;49.680;8.608;2023-02-03T11:16:13;101651.47;;;8.61;100.00
45541;BME280;31265;49.680;8.608;2023-02-03T11:18:46;101651.13;;;8.46;100.00
45541;BME280;31265;49.680;8.608;2023-02-03T11:21:21;101649.47;;;8.62;100.00
45541;BME280;31265;49.680;8.608;2023-02-03T11:23:54;101663.84;;;8.60;100.00
45541;BME280;31265;49.680;8.608;2023-02-03T11:26:26;101667.91;;;8.54;100.00
45541;BME280;31265;49.680;8.608;2023-02-03T11:28:57;101674.00;;;8.47;100.00
45541;BME280;31265;49.680;8.608;2023-02-03T11:31:28;101667.94;;;8.48;100.00
45541;BME280;31265;49.680;8.608;2023-02-03T11:33:59;101664.50;;;8.36;100.00
45541;BME280;31265;49.680;8.608;2023-02-03T11:36:31;101667.50;;;8.38;100.00
45541;BME280;31265;49.680;8.608;2023-02-03T11:39:16;101666.19;;;8.45;100.00
45541;BME280;31265;49.680;8.608;2023-02-03T11:41:47;101659.91;;;8.45;100.00
45541;BME280;31265;49.680;8.608;2023-02-03T11:44:19;101645.94;;;8.31;100.00
45541;BME280;31265;49.680;8.608;2023-02-03T11:46:53;101645.38;;;8.38;100.00
45541;BME280;31265;49.680;8.608;2023-02-03T11:55:22;101639.69;;;8.61;100.00
45541;BME280;31265;49.680;8.608;2023-02-03T11:58:12;101632.91;;;8.56;100.00
45541;BME280;31265;49.680;8.608;2023-02-03T12:00:52;101643.88;;;8.68;100.00
45541;BME280;31265;49.680;8.608;2023-02-03T12:03:43;101635.06;;;8.69;100.00
45541;BME280;31265;49.680;8.608;2023-02-03T12:06:26;101621.75;;;8.68;100.00
45541;BME280;31265;49.680;8.608;2023-02-03T12:09:09;101627.56;;;8.64;100.00
45541;BME280;31265;49.680;8.608;2023-02-03T12:11:59;101618.34;;;8.56;100.00
45541;BME280;31265;49.680;8.608;2023-02-03T12:14:37;101619.09;;;8.56;100.00
45541;BME280;31265;49.680;8.608;2023-02-03T12:20:14;101631.69;;;8.52;100.00
45541;BME280;31265;49.680;8.608;2023-02-03T12:22:49;101624.38;;;8.54;100.00
45541;BME280;31265;49.680;8.608;2023-02-03T12:25:36;101630.97;;;8.51;100.00
45541;BME280;31265;49.680;8.608;2023-02-03T12:28:20;101628.44;;;8.53;100.00
45541;BME280;31265;49.680;8.608;2023-02-03T12:31:04;101614.94;;;8.69;100.00
45541;BME280;31265;49.680;8.608;2023-02-03T12:33:39;101606.88;;;8.71;100.00
45541;BME280;31265;49.680;8.608;2023-02-03T12:36:13;101609.66;;;8.71;100.00
45541;BME280;31265;49.680;8.608;2023-02-03T12:38:45;101603.59;;;8.72;100.00
45541;BME280;31265;49.680;8.608;2023-02-03T12:41:21;101594.31;;;8.70;100.00
45541;BME280;31265;49.680;8.608;2023-02-03T12:43:57;101587.22;;;8.74;100.00
45541;BME280;31265;49.680;8.608;2023-02-03T12:46:29;101581.97;;;8.71;100.00
45541;BME280;31265;49.680;8.608;2023-02-03T12:49:03;101578.34;;;8.81;100.00
45541;BME280;31265;49.680;8.608;2023-02-03T12:51:38;101568.19;;;8.90;100.00
45541;BME280;31265;49.680;8.608;2023-02-03T12:54:15;101566.94;;;8.91;100.00
45541;BME280;31265;49.680;8.608;2023-02-03T12:56:48;101565.25;;;8.82;100.00
45541;BME280;31265;49.680;8.608;2023-02-03T12:59:22;101563.44;;;8.85;100.00
45541;BME280;31265;49.680;8.608;2023-02-03T13:01:56;101567.56;;;8.78;100.00
45541;BME280;31265;49.680;8.608;2023-02-03T13:04:31;101570.78;;;8.82;100.00
45541;BME280;31265;49.680;8.608;2023-02-03T13:07:07;101569.88;;;8.74;100.00
45541;BME280;31265;49.680;8.608;2023-02-03T13:09:45;101576.16;;;8.74;100.00
45541;BME280;31265;49.680;8.608;2023-02-03T13:12:26;101579.31;;;8.84;100.00
45541;BME280;31265;49.680;8.608;2023-02-03T13:15:03;101584.63;;;8.82;100.00
45541;BME280;31265;49.680;8.608;2023-02-03T13:17:39;101574.81;;;8.81;100.00
45541;BME280;31265;49.680;8.608;2023-02-03T13:20:15;101575.41;;;8.74;100.00
45541;BME280;31265;49.680;8.608;2023-02-03T13:22:46;101572.22;;;8.64;100.00
45541;BME280;31265;49.680;8.608;2023-02-03T13:25:19;101571.00;;;8.59;100.00
45541;BME280;31265;49.680;8.608;2023-02-03T13:27:58;101569.97;;;8.63;100.00
45541;BME280;31265;49.680;8.608;2023-02-03T13:30:32;101555.94;;;8.60;100.00